Time;durP1;ratioP1;P1;durP2;ratioP2;P2;SDS_P1;SDS_P2;PMS_P1;PMS_P2;Temp;Humidity;BMP_temperature;BMP_pressure;BME280_temperature;BME280_humidity;BME280_pressure;Samples;Min_cycle;Max_cycle;Signal;HPM_P1;HPM_P2
2023/07/09 00:01:56;;;;;;;5.50;2.50;;;;;;;;;;5053414;28;19951;-81
2023/07/09 00:04:21;;;;;;;6.93;2.30;;;;;;;;;;5039570;28;20036;-82
2023/07/09 00:06:47;;;;;;;5.85;2.53;;;;;;;;;;5061506;28;20033;-82
2023/07/09 00:09:23;;;;;;;4.63;2.47;;;;;;;;;;5069560;28;20044;-81
2023/07/09 00:11:49;;;;;;;4.35;2.20;;;;;;;;;;5049975;28;20063;-82
2023/07/09 00:14:16;;;;;;;4.60;2.47;;;;;;;;;;5055146;28;20036;-81
2023/07/09 00:16:44;;;;;;;5.75;2.65;;;;;;;;;;5057230;28;20634;-81
2023/07/09 00:19:15;;;;;;;4.57;2.28;;;;;;;;;;5042061;28;20615;-82
2023/07/09 00:21:40;;;;;;;6.28;2.60;;;;;;;;;;5056727;28;20040;-81
2023/07/09 00:24:07;;;;;;;5.15;2.40;;;;;;;;;;5042701;28;20045;-81
2023/07/09 00:26:33;;;;;;;5.85;2.30;;;;;;;;;;5033611;28;20025;-81
2023/07/09 00:28:59;;;;;;;5.32;2.40;;;;;;;;;;5036279;28;20138;-82
2023/07/09 00:31:25;;;;;;;4.53;2.35;;;;;;;;;;5033403;28;20044;-82
2023/07/09 00:34:11;;;;;;;4.68;2.22;;;;;;;;;;5032685;28;20037;-81
2023/07/09 00:36:37;;;;;;;6.65;2.85;;;;;;;;;;5053269;28;20154;-81
2023/07/09 00:39:07;;;;;;;4.85;2.30;;;;;;;;;;5038461;28;20135;-80
2023/07/09 00:41:37;;;;;;;4.72;2.30;;;;;;;;;;5039503;28;20060;-80
2023/07/09 00:44:33;;;;;;;5.22;2.55;;;;;;;;;;5035449;28;20522;-80
2023/07/09 00:47:00;;;;;;;3.93;2.30;;;;;;;;;;5022702;28;20610;-81
2023/07/09 00:49:46;;;;;;;5.00;2.28;;;;;;;;;;5036600;28;20111;-82
2023/07/09 00:52:24;;;;;;;4.57;2.25;;;;;;;;;;5049078;28;20047;-81
2023/07/09 00:54:51;;;;;;;4.80;2.30;;;;;;;;;;5038812;28;20036;-81
2023/07/09 00:57:19;;;;;;;4.80;2.50;;;;;;;;;;5050109;28;20067;-81
2023/07/09 00:59:48;;;;;;;5.07;2.20;;;;;;;;;;5042941;28;20120;-81
2023/07/09 01:02:36;;;;;;;4.10;2.40;;;;;;;;;;5038095;28;20100;-81
2023/07/09 01:05:02;;;;;;;4.85;2.17;;;;;;;;;;5024928;28;20041;-81
2023/07/09 01:07:29;;;;;;;5.88;2.10;;;;;;;;;;5000731;28;20028;-81
2023/07/09 01:09:55;;;;;;;4.60;2.28;;;;;;;;;;5013148;28;20633;-80
2023/07/09 01:12:21;;;;;;;4.47;2.28;;;;;;;;;;5009021;28;20033;-80
2023/07/09 01:14:51;;;;;;;5.30;2.58;;;;;;;;;;5028617;28;20064;-81
2023/07/09 01:17:17;;;;;;;5.38;2.40;;;;;;;;;;5027528;28;20504;-81
2023/07/09 01:19:44;;;;;;;3.78;2.25;;;;;;;;;;5005610;28;20041;-81
2023/07/09 01:22:14;;;;;;;4.73;2.10;;;;;;;;;;5010806;28;20435;-81
2023/07/09 01:24:50;;;;;;;5.20;2.20;;;;;;;;;;5012992;28;20556;-81
2023/07/09 01:27:19;;;;;;;5.28;2.40;;;;;;;;;;5029062;28;20114;-80
2023/07/09 01:29:48;;;;;;;4.95;2.40;;;;;;;;;;5012880;28;20037;-81
2023/07/09 01:32:18;;;;;;;4.20;2.25;;;;;;;;;;5012429;28;20032;-81
2023/07/09 01:34:47;;;;;;;3.97;2.20;;;;;;;;;;5023702;28;20064;-81
2023/07/09 01:37:15;;;;;;;4.82;2.45;;;;;;;;;;5011798;28;20412;-81
2023/07/09 01:39:41;;;;;;;4.75;2.22;;;;;;;;;;4992050;28;20041;-80
2023/07/09 01:42:08;;;;;;;4.32;2.30;;;;;;;;;;5031785;28;20033;-81
2023/07/09 01:44:35;;;;;;;6.40;2.50;;;;;;;;;;5042092;28;20048;-80
2023/07/09 01:47:04;;;;;;;5.65;2.40;;;;;;;;;;5034935;28;20919;-81
2023/07/09 01:49:31;;;;;;;5.72;2.45;;;;;;;;;;5040336;28;20021;-81
2023/07/09 01:51:57;;;;;;;4.60;2.72;;;;;;;;;;5027340;28;20508;-81
2023/07/09 01:54:27;;;;;;;3.90;2.38;;;;;;;;;;5034956;28;20040;-81
2023/07/09 01:56:56;;;;;;;5.28;2.53;;;;;;;;;;5037480;28;20041;-81
2023/07/09 01:59:22;;;;;;;4.32;2.33;;;;;;;;;;5053949;28;20066;-81
2023/07/09 02:01:47;;;;;;;5.90;2.45;;;;;;;;;;5041095;28;20040;-80
2023/07/09 02:07:17;;;;;;;5.88;2.50;;;;;;;;;;5037170;28;20040;-81
2023/07/09 02:09:43;;;;;;;4.55;2.35;;;;;;;;;;5024096;28;20623;-80
2023/07/09 02:12:10;;;;;;;5.07;2.45;;;;;;;;;;5035881;28;20057;-80
2023/07/09 02:14:36;;;;;;;7.00;2.73;;;;;;;;;;5038344;28;20036;-81
2023/07/09 02:17:02;;;;;;;4.75;2.42;;;;;;;;;;5056214;28;20404;-81
2023/07/09 02:19:28;;;;;;;5.47;2.42;;;;;;;;;;5042698;28;20090;-81
2023/07/09 02:21:54;;;;;;;5.78;2.95;;;;;;;;;;5042972;28;20696;-82
2023/07/09 02:24:19;;;;;;;7.63;2.75;;;;;;;;;;5044925;28;20044;-81
2023/07/09 02:26:53;;;;;;;4.57;2.33;;;;;;;;;;5055340;28;20029;-80
2023/07/09 02:29:18;;;;;;;5.47;2.50;;;;;;;;;;5050230;28;20051;-80
2023/07/09 02:31:45;;;;;;;5.03;2.47;;;;;;;;;;5037637;28;20436;-81
2023/07/09 02:34:10;;;;;;;4.78;2.80;;;;;;;;;;5055018;28;20040;-80
2023/07/09 02:36:36;;;;;;;5.60;2.78;;;;;;;;;;5045636;28;20039;-80
2023/07/09 02:39:01;;;;;;;4.22;2.42;;;;;;;;;;5058701;28;20065;-81
2023/07/09 02:41:27;;;;;;;5.43;2.58;;;;;;;;;;5046763;28;20040;-81
2023/07/09 02:43:52;;;;;;;4.47;2.60;;;;;;;;;;5060567;28;20392;-81
2023/07/09 02:46:17;;;;;;;4.93;2.60;;;;;;;;;;5054280;28;20063;-80
2023/07/09 02:48:43;;;;;;;6.43;2.92;;;;;;;;;;5052600;28;20164;-81
2023/07/09 02:51:11;;;;;;;5.10;2.90;;;;;;;;;;5051127;28;20033;-80
2023/07/09 02:53:36;;;;;;;7.20;2.85;;;;;;;;;;5050645;28;20032;-81
2023/07/09 02:56:02;;;;;;;5.43;2.92;;;;;;;;;;5045323;28;20075;-81
2023/07/09 02:58:30;;;;;;;5.47;2.70;;;;;;;;;;5057857;28;20049;-81
2023/07/09 03:00:55;;;;;;;7.82;3.10;;;;;;;;;;5052786;28;20104;-81
2023/07/09 03:03:21;;;;;;;5.65;3.08;;;;;;;;;;5052286;28;20111;-82
2023/07/09 03:05:46;;;;;;;6.00;2.90;;;;;;;;;;5051896;28;20431;-81
2023/07/09 03:08:12;;;;;;;6.40;3.05;;;;;;;;;;5045383;28;20033;-81
2023/07/09 03:10:38;;;;;;;5.28;3.17;;;;;;;;;;5049696;28;20094;-80
2023/07/09 03:13:03;;;;;;;5.07;2.60;;;;;;;;;;5036124;28;20048;-81
2023/07/09 03:15:30;;;;;;;6.85;2.63;;;;;;;;;;5054455;28;20037;-81
2023/07/09 03:17:56;;;;;;;4.85;2.80;;;;;;;;;;5042052;28;20384;-81
2023/07/09 03:20:21;;;;;;;5.95;2.95;;;;;;;;;;5053052;28;20037;-81
2023/07/09 03:22:47;;;;;;;4.68;2.90;;;;;;;;;;5051691;28;20033;-81
2023/07/09 03:25:12;;;;;;;5.30;2.60;;;;;;;;;;5038328;28;20040;-81
2023/07/09 03:27:37;;;;;;;5.07;3.00;;;;;;;;;;5052652;28;20075;-81
2023/07/09 03:30:03;;;;;;;5.60;3.00;;;;;;;;;;5037385;28;20723;-81
2023/07/09 03:32:29;;;;;;;4.95;2.80;;;;;;;;;;5050010;28;20034;-80
2023/07/09 03:34:54;;;;;;;5.90;3.13;;;;;;;;;;5040140;28;20035;-82
2023/07/09 03:37:20;;;;;;;4.90;2.88;;;;;;;;;;5046019;28;20036;-81
2023/07/09 03:39:45;;;;;;;7.07;3.00;;;;;;;;;;5041733;28;20076;-81
2023/07/09 03:42:11;;;;;;;7.80;3.00;;;;;;;;;;5045708;28;20032;-81
2023/07/09 03:44:44;;;;;;;5.00;2.80;;;;;;;;;;5050071;28;20917;-81
2023/07/09 03:47:09;;;;;;;5.63;2.92;;;;;;;;;;5045084;28;20525;-82
2023/07/09 03:49:34;;;;;;;5.60;2.85;;;;;;;;;;5051042;28;20115;-81
2023/07/09 03:52:00;;;;;;;5.82;3.15;;;;;;;;;;5042184;28;20029;-81
2023/07/09 03:54:25;;;;;;;5.88;3.40;;;;;;;;;;5054756;28;20525;-81
2023/07/09 03:56:51;;;;;;;4.20;2.78;;;;;;;;;;5027367;28;20066;-81
2023/07/09 03:59:16;;;;;;;5.57;3.00;;;;;;;;;;5051970;28;20489;-81
2023/07/09 04:01:44;;;;;;;6.78;2.92;;;;;;;;;;5039877;28;20037;-81
2023/07/09 04:04:20;;;;;;;5.07;3.22;;;;;;;;;;5038559;28;20036;-81
2023/07/09 04:06:46;;;;;;;5.03;2.90;;;;;;;;;;5059406;28;20037;-81
2023/07/09 04:09:12;;;;;;;4.95;2.80;;;;;;;;;;5044879;28;20039;-82
2023/07/09 04:11:37;;;;;;;5.10;3.17;;;;;;;;;;5044517;28;20029;-80
2023/07/09 04:14:03;;;;;;;5.22;3.00;;;;;;;;;;5039564;28;20668;-81
2023/07/09 04:16:37;;;;;;;4.85;2.85;;;;;;;;;;5060668;28;20036;-82
2023/07/09 04:19:02;;;;;;;6.13;3.08;;;;;;;;;;5043224;28;20048;-82
2023/07/09 04:21:28;;;;;;;5.13;2.55;;;;;;;;;;5044947;28;20368;-82
2023/07/09 04:23:54;;;;;;;5.68;2.72;;;;;;;;;;5052163;28;20054;-81
2023/07/09 04:26:23;;;;;;;6.90;2.90;;;;;;;;;;5033275;28;20036;-82
2023/07/09 04:28:48;;;;;;;5.35;2.95;;;;;;;;;;5052468;28;20506;-81
2023/07/09 04:31:14;;;;;;;8.95;2.60;;;;;;;;;;5049267;28;20036;-81
2023/07/09 04:33:39;;;;;;;6.32;2.50;;;;;;;;;;5045150;28;20029;-81
2023/07/09 04:36:08;;;;;;;5.13;2.72;;;;;;;;;;5067606;28;20446;-82
2023/07/09 04:38:34;;;;;;;5.78;2.75;;;;;;;;;;5044391;28;20439;-81
2023/07/09 04:40:59;;;;;;;5.05;2.88;;;;;;;;;;5056454;28;20071;-81
2023/07/09 04:43:24;;;;;;;5.50;2.83;;;;;;;;;;5045640;28;20035;-81
2023/07/09 04:45:50;;;;;;;5.90;3.00;;;;;;;;;;5058064;28;20945;-82
2023/07/09 04:48:16;;;;;;;7.22;2.95;;;;;;;;;;5060170;28;20507;-81
2023/07/09 04:50:41;;;;;;;4.43;2.47;;;;;;;;;;5033382;28;20047;-81
2023/07/09 04:53:06;;;;;;;5.15;2.70;;;;;;;;;;5056928;28;20087;-81
2023/07/09 04:55:33;;;;;;;4.53;2.65;;;;;;;;;;5057202;28;20041;-81
2023/07/09 04:57:58;;;;;;;4.22;2.47;;;;;;;;;;5049838;28;20045;-82
2023/07/09 05:00:24;;;;;;;5.88;2.85;;;;;;;;;;5034032;28;20036;-81
2023/07/09 05:02:49;;;;;;;5.13;2.67;;;;;;;;;;5059118;28;20040;-81
2023/07/09 05:05:14;;;;;;;4.80;2.60;;;;;;;;;;5056125;28;20045;-81
2023/07/09 05:07:49;;;;;;;5.55;2.72;;;;;;;;;;5072858;28;20033;-81
2023/07/09 05:10:14;;;;;;;5.30;2.67;;;;;;;;;;5042168;28;20036;-81
2023/07/09 05:12:54;;;;;;;4.88;2.63;;;;;;;;;;5052247;28;20852;-81
2023/07/09 05:15:21;;;;;;;4.47;2.60;;;;;;;;;;5056770;28;20407;-82
2023/07/09 05:17:47;;;;;;;5.00;2.88;;;;;;;;;;5057475;28;20037;-81
2023/07/09 05:20:14;;;;;;;5.65;2.75;;;;;;;;;;5048970;28;20041;-81
2023/07/09 05:22:40;;;;;;;4.90;2.60;;;;;;;;;;5038077;28;20040;-81
2023/07/09 05:25:05;;;;;;;4.28;2.50;;;;;;;;;;5073832;28;20037;-82
2023/07/09 05:27:31;;;;;;;6.72;2.45;;;;;;;;;;5033660;28;20159;-81
2023/07/09 05:29:58;;;;;;;4.93;2.60;;;;;;;;;;5043734;28;20049;-81
2023/07/09 05:32:25;;;;;;;4.87;2.40;;;;;;;;;;5047770;28;20043;-85
2023/07/09 05:34:51;;;;;;;4.88;2.75;;;;;;;;;;5011532;28;20280;-84
2023/07/09 05:37:16;;;;;;;4.95;2.38;;;;;;;;;;5050737;28;20036;-85
2023/07/09 05:39:42;;;;;;;3.80;2.22;;;;;;;;;;5026178;28;20495;-85
2023/07/09 05:42:07;;;;;;;4.10;2.38;;;;;;;;;;5010636;28;20423;-85
2023/07/09 05:44:33;;;;;;;5.18;2.67;;;;;;;;;;5039313;28;20037;-85
2023/07/09 05:46:58;;;;;;;5.75;2.60;;;;;;;;;;5059847;28;20042;-85
2023/07/09 05:49:26;;;;;;;3.88;2.30;;;;;;;;;;5032357;28;20044;-88
2023/07/09 05:51:52;;;;;;;5.03;2.33;;;;;;;;;;5023666;28;20033;-85
2023/07/09 05:54:18;;;;;;;4.72;2.45;;;;;;;;;;5041969;28;20268;-85
2023/07/09 05:56:43;;;;;;;4.63;2.33;;;;;;;;;;5052457;28;20104;-84
2023/07/09 05:59:09;;;;;;;4.25;2.35;;;;;;;;;;5045414;28;20542;-86
2023/07/09 06:01:37;;;;;;;4.55;2.30;;;;;;;;;;5036136;28;20089;-86
2023/07/09 06:04:03;;;;;;;5.13;2.22;;;;;;;;;;5048982;28;20103;-84
2023/07/09 06:06:31;;;;;;;4.45;2.30;;;;;;;;;;5053513;28;20032;-85
2023/07/09 06:08:57;;;;;;;4.28;2.33;;;;;;;;;;5043714;28;20095;-81
2023/07/09 06:11:23;;;;;;;3.70;2.10;;;;;;;;;;5037156;28;20071;-82
2023/07/09 06:13:49;;;;;;;7.88;2.80;;;;;;;;;;5055920;28;20029;-83
2023/07/09 06:16:14;;;;;;;4.32;2.60;;;;;;;;;;5070616;28;20048;-81
2023/07/09 06:18:40;;;;;;;6.35;2.50;;;;;;;;;;5053442;28;20048;-81
2023/07/09 06:21:07;;;;;;;4.70;2.50;;;;;;;;;;5040143;28;20381;-83
2023/07/09 06:23:33;;;;;;;4.85;2.47;;;;;;;;;;5047532;28;20036;-84
2023/07/09 06:25:58;;;;;;;4.55;2.28;;;;;;;;;;5042121;28;20052;-85
2023/07/09 06:28:28;;;;;;;4.53;2.50;;;;;;;;;;5048011;28;20044;-81
2023/07/09 06:30:54;;;;;;;4.18;2.20;;;;;;;;;;5032109;28;20040;-81
2023/07/09 06:33:19;;;;;;;5.03;2.88;;;;;;;;;;5013606;28;20037;-81
2023/07/09 06:35:53;;;;;;;4.47;2.45;;;;;;;;;;5037939;28;20051;-80
2023/07/09 06:38:19;;;;;;;4.60;2.40;;;;;;;;;;5030083;28;20119;-80
2023/07/09 06:40:45;;;;;;;5.05;2.63;;;;;;;;;;5054616;28;20036;-80
2023/07/09 06:43:10;;;;;;;4.57;2.38;;;;;;;;;;5029249;28;20048;-80
2023/07/09 06:45:36;;;;;;;4.13;2.40;;;;;;;;;;5016084;28;20029;-81
2023/07/09 06:48:05;;;;;;;5.72;2.20;;;;;;;;;;5028225;28;20082;-81
2023/07/09 06:50:34;;;;;;;7.03;2.78;;;;;;;;;;5024103;28;20072;-81
2023/07/09 06:53:00;;;;;;;6.00;2.60;;;;;;;;;;5012526;28;20091;-80
2023/07/09 06:55:26;;;;;;;5.85;2.60;;;;;;;;;;5021625;28;20033;-80
2023/07/09 06:57:51;;;;;;;4.05;2.30;;;;;;;;;;5032451;28;20052;-80
2023/07/09 07:00:17;;;;;;;4.90;2.20;;;;;;;;;;5045438;28;20037;-82
2023/07/09 07:02:42;;;;;;;4.53;2.60;;;;;;;;;;5020829;28;20048;-79
2023/07/09 07:05:08;;;;;;;7.60;2.35;;;;;;;;;;5027700;28;20033;-87
2023/07/09 07:07:33;;;;;;;3.80;2.35;;;;;;;;;;5017459;28;20525;-86
2023/07/09 07:10:05;;;;;;;8.10;2.35;;;;;;;;;;5018001;28;20044;-86
2023/07/09 07:12:42;;;;;;;4.10;2.35;;;;;;;;;;5004348;28;20389;-86
2023/07/09 07:15:30;;;;;;;4.22;2.50;;;;;;;;;;5009362;28;20497;-87
2023/07/09 07:17:55;;;;;;;4.57;2.38;;;;;;;;;;5074157;28;20068;-85
2023/07/09 07:20:24;;;;;;;5.50;2.55;;;;;;;;;;5052194;28;20086;-85
2023/07/09 07:22:49;;;;;;;3.75;2.42;;;;;;;;;;5054623;28;20029;-87
2023/07/09 07:25:15;;;;;;;4.80;2.28;;;;;;;;;;5051130;28;20472;-85
2023/07/09 07:27:41;;;;;;;6.65;2.80;;;;;;;;;;5024938;28;20063;-87
2023/07/09 07:30:11;;;;;;;4.25;2.25;;;;;;;;;;5037207;28;20043;-86
2023/07/09 07:32:45;;;;;;;4.03;2.40;;;;;;;;;;5046689;28;20033;-86
2023/07/09 07:35:11;;;;;;;4.78;2.42;;;;;;;;;;5049419;28;20054;-87
2023/07/09 07:37:36;;;;;;;4.75;2.28;;;;;;;;;;5024281;28;20026;-86
2023/07/09 07:40:04;;;;;;;3.97;2.15;;;;;;;;;;5034690;28;20052;-87
2023/07/09 07:42:30;;;;;;;4.80;2.58;;;;;;;;;;5025822;28;20026;-86
2023/07/09 07:44:55;;;;;;;5.35;2.50;;;;;;;;;;5013026;28;20083;-85
2023/07/09 07:47:21;;;;;;;3.72;2.20;;;;;;;;;;5022738;28;20047;-84
2023/07/09 07:49:46;;;;;;;6.90;2.50;;;;;;;;;;5038123;28;20663;-87
2023/07/09 07:52:12;;;;;;;4.97;2.65;;;;;;;;;;5021043;28;20497;-87
2023/07/09 07:54:43;;;;;;;4.35;2.63;;;;;;;;;;5021429;28;20034;-86
2023/07/09 07:57:09;;;;;;;4.88;2.45;;;;;;;;;;5025555;28;20052;-87
2023/07/09 07:59:35;;;;;;;4.10;2.53;;;;;;;;;;5007574;28;20032;-87
2023/07/09 08:02:02;;;;;;;18.52;2.50;;;;;;;;;;5036385;28;20087;-87
2023/07/09 08:04:27;;;;;;;5.07;2.65;;;;;;;;;;5040845;28;20079;-86
2023/07/09 08:06:53;;;;;;;4.93;2.38;;;;;;;;;;5020220;28;20492;-86
2023/07/09 08:09:19;;;;;;;4.82;2.53;;;;;;;;;;5023972;28;20044;-87
2023/07/09 08:11:44;;;;;;;3.63;2.20;;;;;;;;;;5025062;28;20061;-87
2023/07/09 08:14:10;;;;;;;4.63;2.28;;;;;;;;;;5041526;28;20037;-87
2023/07/09 08:16:35;;;;;;;5.43;2.58;;;;;;;;;;5041370;28;20029;-87
2023/07/09 08:19:01;;;;;;;4.22;2.40;;;;;;;;;;5016201;28;20041;-87
2023/07/09 08:21:29;;;;;;;5.50;2.50;;;;;;;;;;5022351;28;20071;-88
2023/07/09 08:23:55;;;;;;;3.63;2.20;;;;;;;;;;5027309;28;20132;-87
2023/07/09 08:26:20;;;;;;;4.63;2.30;;;;;;;;;;5033064;28;20104;-88
2023/07/09 08:28:46;;;;;;;5.70;2.58;;;;;;;;;;5040522;28;20037;-87
2023/07/09 08:31:11;;;;;;;4.20;2.38;;;;;;;;;;5038531;28;20039;-87
2023/07/09 08:33:37;;;;;;;4.65;2.25;;;;;;;;;;5033859;28;20079;-87
2023/07/09 08:36:03;;;;;;;4.25;2.20;;;;;;;;;;5041095;28;20105;-85
2023/07/09 08:38:28;;;;;;;3.75;2.13;;;;;;;;;;5042009;28;20055;-88
2023/07/09 08:40:59;;;;;;;4.43;2.45;;;;;;;;;;5057292;28;20040;-88
2023/07/09 08:43:34;;;;;;;5.38;2.30;;;;;;;;;;5041198;28;20393;-87
2023/07/09 08:46:11;;;;;;;7.22;2.40;;;;;;;;;;5036828;28;20140;-87
2023/07/09 08:48:40;;;;;;;5.05;2.10;;;;;;;;;;5022806;28;20041;-87
2023/07/09 08:51:19;;;;;;;5.65;2.15;;;;;;;;;;5029161;28;20063;-86
2023/07/09 08:53:56;;;;;;;4.57;2.08;;;;;;;;;;5037645;28;20026;-86
2023/07/09 08:56:21;;;;;;;;;;;;;;;;;;5021656;28;20071;-87
2023/07/09 08:58:49;;;;;;;3.60;2.10;;;;;;;;;;5039358;28;20050;-86
2023/07/09 09:01:26;;;;;;;3.67;1.90;;;;;;;;;;5020035;28;20045;-87
2023/07/09 09:03:55;;;;;;;3.45;2.03;;;;;;;;;;5032983;28;20107;-88
2023/07/09 09:06:25;;;;;;;3.67;1.92;;;;;;;;;;5031744;28;20025;-86
2023/07/09 09:09:09;;;;;;;3.95;2.00;;;;;;;;;;5020511;28;20107;-87
2023/07/09 09:12:18;;;;;;;3.42;1.88;;;;;;;;;;5056616;28;20497;-86
2023/07/09 09:15:06;;;;;;;4.10;2.20;;;;;;;;;;5043945;28;20412;-87
2023/07/09 09:17:34;;;;;;;4.50;2.13;;;;;;;;;;5039484;28;20581;-86
2023/07/09 09:20:03;;;;;;;3.60;2.03;;;;;;;;;;5044919;28;20221;-87
2023/07/09 09:23:01;;;;;;;3.65;2.00;;;;;;;;;;5050842;28;20493;-88
2023/07/09 09:25:28;;;;;;;3.45;2.00;;;;;;;;;;5053447;28;20033;-87
2023/07/09 09:27:54;;;;;;;3.97;1.70;;;;;;;;;;5047582;28;20040;-86
2023/07/09 09:30:24;;;;;;;3.63;1.63;;;;;;;;;;5044551;28;20033;-86
2023/07/09 09:33:06;;;;;;;4.20;1.70;;;;;;;;;;5058094;28;20033;-86
2023/07/09 09:35:34;;;;;;;3.45;1.67;;;;;;;;;;5038777;28;20037;-87
2023/07/09 09:38:01;;;;;;;3.13;1.70;;;;;;;;;;5040328;28;20040;-87
2023/07/09 09:40:29;;;;;;;4.85;1.73;;;;;;;;;;5045455;28;20060;-87
2023/07/09 09:42:57;;;;;;;3.47;1.63;;;;;;;;;;5034477;28;20522;-86
2023/07/09 09:45:34;;;;;;;3.38;1.67;;;;;;;;;;5055720;28;20040;-84
2023/07/09 09:48:15;;;;;;;3.33;1.70;;;;;;;;;;5041260;28;20044;-87
2023/07/09 09:50:40;;;;;;;3.20;1.73;;;;;;;;;;5047291;28;20076;-86
2023/07/09 09:53:08;;;;;;;3.30;1.70;;;;;;;;;;5046811;28;20036;-87
2023/07/09 09:55:34;;;;;;;6.32;1.80;;;;;;;;;;5058640;28;20340;-87
2023/07/09 09:58:02;;;;;;;4.00;1.80;;;;;;;;;;5057700;28;20044;-87
2023/07/09 10:00:29;;;;;;;4.30;1.90;;;;;;;;;;5054742;28;20033;-88
2023/07/09 10:03:03;;;;;;;4.95;1.60;;;;;;;;;;5057162;28;20086;-84
2023/07/09 10:05:35;;;;;;;3.65;1.60;;;;;;;;;;5054656;28;20500;-87
2023/07/09 10:08:26;;;;;;;3.47;1.70;;;;;;;;;;5055419;28;20033;-88
2023/07/09 10:10:52;;;;;;;3.58;1.70;;;;;;;;;;5070171;28;20072;-87
2023/07/09 10:13:30;;;;;;;4.00;1.77;;;;;;;;;;5034305;28;20062;-86
2023/07/09 10:16:19;;;;;;;2.90;1.33;;;;;;;;;;5044321;28;20025;-87
2023/07/09 10:18:55;;;;;;;3.33;1.70;;;;;;;;;;5055100;28;20040;-88
2023/07/09 10:21:47;;;;;;;3.33;1.80;;;;;;;;;;5045512;28;20554;-87
2023/07/09 10:24:30;;;;;;;3.85;1.60;;;;;;;;;;5049027;28;20044;-87
2023/07/09 10:27:18;;;;;;;3.50;1.58;;;;;;;;;;5066173;28;20464;-88
2023/07/09 10:29:56;;;;;;;3.85;1.70;;;;;;;;;;5059079;28;20072;-88
2023/07/09 10:32:46;;;;;;;3.20;1.60;;;;;;;;;;5041726;28;20483;-87
2023/07/09 10:35:30;;;;;;;3.22;1.60;;;;;;;;;;5070329;28;20504;-88
2023/07/09 10:38:14;;;;;;;6.43;1.58;;;;;;;;;;5071425;28;20040;-86
2023/07/09 10:40:45;;;;;;;3.38;1.52;;;;;;;;;;5072851;28;20036;-89
2023/07/09 10:43:16;;;;;;;3.55;1.70;;;;;;;;;;5056714;28;20037;-88
2023/07/09 10:45:46;;;;;;;4.20;1.70;;;;;;;;;;5072189;28;20504;-86
2023/07/09 10:48:18;;;;;;;4.90;1.83;;;;;;;;;;5070864;28;20069;-87
2023/07/09 10:50:52;;;;;;;3.30;1.80;;;;;;;;;;5045844;28;20037;-87
2023/07/09 10:53:46;;;;;;;4.28;1.92;;;;;;;;;;5040245;28;20037;-87
2023/07/09 10:56:14;;;;;;;4.07;1.80;;;;;;;;;;5049854;28;20040;-87
2023/07/09 10:59:08;;;;;;;3.65;1.60;;;;;;;;;;5047070;28;20036;-87
2023/07/09 11:01:36;;;;;;;2.97;1.55;;;;;;;;;;5070008;28;20037;-87
2023/07/09 11:04:06;;;;;;;2.90;1.55;;;;;;;;;;5059159;28;20041;-87
2023/07/09 11:06:37;;;;;;;4.25;1.60;;;;;;;;;;5040361;28;20040;-87
2023/07/09 11:09:06;;;;;;;4.28;1.63;;;;;;;;;;5043868;28;21075;-88
2023/07/09 11:11:39;;;;;;;2.97;1.55;;;;;;;;;;5047169;28;20381;-86
2023/07/09 11:14:15;;;;;;;3.25;1.70;;;;;;;;;;5054722;28;20048;-87
2023/07/09 11:16:42;;;;;;;4.47;1.70;;;;;;;;;;5045373;28;20035;-87
2023/07/09 11:19:16;;;;;;;3.10;1.60;;;;;;;;;;5040971;28;20124;-87
2023/07/09 11:22:17;;;;;;;4.00;1.90;;;;;;;;;;5035742;28;20127;-87
2023/07/09 11:24:48;;;;;;;3.95;1.90;;;;;;;;;;5008522;28;20068;-87
2023/07/09 11:27:25;;;;;;;3.38;1.75;;;;;;;;;;5027028;28;20050;-87
2023/07/09 11:30:22;;;;;;;3.25;1.63;;;;;;;;;;5032851;28;20030;-88
2023/07/09 11:32:53;;;;;;;3.75;1.75;;;;;;;;;;5051318;28;20040;-88
2023/07/09 11:35:25;;;;;;;3.80;1.50;;;;;;;;;;5035432;28;20030;-88
2023/07/09 11:37:53;;;;;;;4.68;1.80;;;;;;;;;;5016807;28;20041;-88
2023/07/09 11:40:19;;;;;;;5.57;2.00;;;;;;;;;;5033709;28;20079;-86
2023/07/09 11:42:54;;;;;;;;;;;;;;;;;;5027616;28;20068;-87
2023/07/09 11:45:33;;;;;;;3.13;1.70;;;;;;;;;;5035351;28;20364;-85
2023/07/09 11:48:27;;;;;;;3.47;1.83;;;;;;;;;;5033938;28;20492;-86
2023/07/09 11:50:54;;;;;;;4.22;1.70;;;;;;;;;;5047954;28;20476;-86
2023/07/09 11:53:40;;;;;;;3.97;1.90;;;;;;;;;;5043435;28;20040;-85
2023/07/09 11:56:10;;;;;;;5.30;1.95;;;;;;;;;;5029975;28;20048;-85
2023/07/09 11:58:40;;;;;;;3.67;1.70;;;;;;;;;;5046786;28;20036;-85
2023/07/09 12:01:14;;;;;;;3.25;1.85;;;;;;;;;;5043061;28;20475;-87
2023/07/09 12:03:44;;;;;;;3.75;2.00;;;;;;;;;;5050239;28;20043;-86
2023/07/09 12:06:22;;;;;;;7.50;1.83;;;;;;;;;;5041836;28;20399;-86
2023/07/09 12:08:48;;;;;;;3.38;2.10;;;;;;;;;;5053365;28;20373;-86
2023/07/09 12:11:24;;;;;;;3.97;2.20;;;;;;;;;;5037748;28;20093;-86
2023/07/09 12:13:50;;;;;;;3.30;2.13;;;;;;;;;;5044161;28;20094;-85
2023/07/09 12:16:45;;;;;;;3.95;2.13;;;;;;;;;;5044382;28;20476;-87
2023/07/09 12:19:12;;;;;;;3.53;2.20;;;;;;;;;;5034877;28;20420;-87
2023/07/09 12:21:39;;;;;;;3.78;2.30;;;;;;;;;;5022879;28;20063;-86
2023/07/09 12:24:19;;;;;;;3.80;2.05;;;;;;;;;;5045871;28;20444;-86
2023/07/09 12:26:54;;;;;;;3.00;1.92;;;;;;;;;;5056356;28;20353;-87
2023/07/09 12:29:35;;;;;;;4.07;2.10;;;;;;;;;;5043544;28;20048;-86
2023/07/09 12:32:12;;;;;;;3.65;2.05;;;;;;;;;;5054115;28;20029;-88
2023/07/09 12:34:38;;;;;;;4.68;2.15;;;;;;;;;;5054008;28;20040;-87
2023/07/09 12:37:04;;;;;;;4.68;2.05;;;;;;;;;;5024374;28;20570;-86
2023/07/09 12:39:31;;;;;;;3.70;2.20;;;;;;;;;;5037571;28;20033;-87
2023/07/09 12:41:59;;;;;;;4.60;2.03;;;;;;;;;;5051852;28;20109;-86
2023/07/09 12:44:26;;;;;;;3.78;2.30;;;;;;;;;;5053819;28;20515;-86
2023/07/09 12:46:53;;;;;;;4.25;2.28;;;;;;;;;;5052709;28;20489;-87
2023/07/09 12:49:21;;;;;;;5.47;2.55;;;;;;;;;;5048577;28;20400;-87
2023/07/09 12:51:47;;;;;;;5.65;2.40;;;;;;;;;;5058798;28;20052;-86
2023/07/09 12:54:18;;;;;;;4.63;2.47;;;;;;;;;;5035973;28;20048;-87
2023/07/09 12:56:44;;;;;;;5.05;2.38;;;;;;;;;;5044611;28;20071;-86
2023/07/09 12:59:36;;;;;;;4.47;2.72;;;;;;;;;;5044391;28;20033;-86
2023/07/09 13:02:21;;;;;;;4.20;2.60;;;;;;;;;;5057775;28;20439;-86
2023/07/09 13:04:47;;;;;;;4.40;2.60;;;;;;;;;;5052173;28;20531;-86
2023/07/09 13:07:35;;;;;;;5.25;2.55;;;;;;;;;;5070884;28;20106;-87
2023/07/09 13:10:16;;;;;;;3.97;2.42;;;;;;;;;;5027907;28;20047;-87
2023/07/09 13:12:46;;;;;;;4.00;2.70;;;;;;;;;;5043342;28;20044;-86
2023/07/09 13:15:25;;;;;;;4.57;2.58;;;;;;;;;;5031138;28;20107;-87
2023/07/09 13:18:02;;;;;;;3.85;2.50;;;;;;;;;;5038351;28;20493;-85
2023/07/09 13:20:29;;;;;;;4.20;2.58;;;;;;;;;;5041351;28;20060;-86
2023/07/09 13:22:55;;;;;;;4.88;2.58;;;;;;;;;;5038295;28;20043;-87
2023/07/09 13:25:20;;;;;;;5.03;2.50;;;;;;;;;;5040053;28;20600;-88
2023/07/09 13:27:46;;;;;;;5.43;2.33;;;;;;;;;;5023262;28;20111;-88
2023/07/09 13:30:14;;;;;;;6.40;2.37;;;;;;;;;;5014079;28;20045;-86
2023/07/09 13:32:40;;;;;;;4.50;2.35;;;;;;;;;;5025336;28;20041;-87
2023/07/09 13:35:17;;;;;;;3.87;2.23;;;;;;;;;;5034764;28;20044;-87
2023/07/09 13:37:44;;;;;;;3.38;2.10;;;;;;;;;;5033385;28;20038;-86
2023/07/09 13:40:12;;;;;;;3.80;2.17;;;;;;;;;;5048802;28;20039;-86
2023/07/09 13:42:38;;;;;;;3.72;2.03;;;;;;;;;;5041456;28;20068;-86
2023/07/09 13:45:04;;;;;;;4.22;2.25;;;;;;;;;;5042416;28;20075;-88
2023/07/09 13:47:35;;;;;;;3.58;2.10;;;;;;;;;;5028003;28;20749;-88
2023/07/09 13:50:01;;;;;;;5.05;2.05;;;;;;;;;;5044163;28;20123;-87
2023/07/09 13:52:27;;;;;;;5.53;2.30;;;;;;;;;;5041028;28;20906;-89
2023/07/09 13:54:52;;;;;;;4.87;2.20;;;;;;;;;;5048172;28;20839;-87
2023/07/09 13:57:21;;;;;;;5.68;2.50;;;;;;;;;;5025459;28;20044;-87
2023/07/09 13:59:47;;;;;;;2.92;1.70;;;;;;;;;;5039411;28;20414;-89
2023/07/09 14:02:29;;;;;;;5.20;2.20;;;;;;;;;;5031655;28;20091;-90
2023/07/09 14:05:00;;;;;;;3.55;2.10;;;;;;;;;;5021158;28;20056;-88
2023/07/09 14:07:28;;;;;;;4.40;2.38;;;;;;;;;;5050321;28;20125;-88
2023/07/09 14:09:53;;;;;;;3.70;2.28;;;;;;;;;;5046642;28;20044;-89
2023/07/09 14:12:22;;;;;;;3.70;2.23;;;;;;;;;;5048221;28;20032;-88
2023/07/09 14:14:50;;;;;;;4.00;2.15;;;;;;;;;;5033579;28;20037;-89
2023/07/09 14:17:16;;;;;;;5.30;2.10;;;;;;;;;;5038900;28;20052;-88
2023/07/09 14:19:41;;;;;;;5.37;2.63;;;;;;;;;;5042276;28;20036;-88
2023/07/09 14:22:32;;;;;;;4.40;2.47;;;;;;;;;;5026644;28;20041;-89
2023/07/09 14:25:05;;;;;;;3.80;2.50;;;;;;;;;;5039028;28;20577;-89
2023/07/09 14:27:31;;;;;;;4.18;2.50;;;;;;;;;;5028922;28;20126;-86
2023/07/09 14:29:56;;;;;;;5.57;2.50;;;;;;;;;;5025410;28;20077;-87
2023/07/09 14:32:41;;;;;;;4.07;2.73;;;;;;;;;;5029276;28;20083;-88
2023/07/09 14:35:13;;;;;;;4.35;2.60;;;;;;;;;;5041895;28;20048;-86
2023/07/09 14:37:39;;;;;;;5.18;2.78;;;;;;;;;;5030790;28;20515;-88
2023/07/09 14:40:05;;;;;;;5.10;2.70;;;;;;;;;;5026947;28;20038;-88
2023/07/09 14:42:31;;;;;;;4.70;2.57;;;;;;;;;;5049547;28;20152;-89
2023/07/09 14:44:57;;;;;;;4.47;2.75;;;;;;;;;;5030879;28;20065;-89
2023/07/09 14:47:27;;;;;;;4.78;3.03;;;;;;;;;;5017537;28;20044;-89
2023/07/09 14:49:53;;;;;;;4.78;2.90;;;;;;;;;;5053474;28;20037;-88
2023/07/09 14:52:21;;;;;;;5.68;2.90;;;;;;;;;;5041752;28;20021;-88
2023/07/09 14:54:58;;;;;;;5.93;2.90;;;;;;;;;;5013421;28;20033;-88
2023/07/09 14:57:26;;;;;;;4.78;3.08;;;;;;;;;;5027016;28;20422;-88
2023/07/09 14:59:53;;;;;;;4.30;2.65;;;;;;;;;;5019524;28;20493;-88
2023/07/09 15:02:42;;;;;;;5.22;2.80;;;;;;;;;;5041991;28;20408;-88